sensor_id;sensor_type;location;lat;lon;timestamp;pressure;altitude;pressure_sealevel;temperature;humidity
9740;BME280;4909;42.680;26.324;2024-02-16T00:01:00;98956.41;;;9.12;78.91
9740;BME280;4909;42.680;26.324;2024-02-16T00:03:27;98978.59;;;9.08;78.96
9740;BME280;4909;42.680;26.324;2024-02-16T00:05:54;98925.88;;;8.76;79.42
9740;BME280;4909;42.680;26.324;2024-02-16T00:08:21;98954.06;;;9.03;79.20
9740;BME280;4909;42.680;26.324;2024-02-16T00:10:49;98965.69;;;8.99;79.83
9740;BME280;4909;42.680;26.324;2024-02-16T00:13:16;98971.84;;;8.99;79.75
9740;BME280;4909;42.680;26.324;2024-02-16T00:15:43;98956.72;;;9.03;79.95
9740;BME280;4909;42.680;26.324;2024-02-16T00:18:10;98933.19;;;8.94;80.41
9740;BME280;4909;42.680;26.324;2024-02-16T00:20:38;98959.25;;;9.06;80.12
9740;BME280;4909;42.680;26.324;2024-02-16T00:23:05;98941.81;;;9.00;80.13
9740;BME280;4909;42.680;26.324;2024-02-16T00:25:32;98975.41;;;8.98;79.36
9740;BME280;4909;42.680;26.324;2024-02-16T00:28:00;98954.41;;;8.92;79.21
9740;BME280;4909;42.680;26.324;2024-02-16T00:30:28;98978.09;;;8.97;79.14
9740;BME280;4909;42.680;26.324;2024-02-16T00:32:55;98968.13;;;9.05;79.09
9740;BME280;4909;42.680;26.324;2024-02-16T00:35:22;98947.69;;;8.82;80.05
9740;BME280;4909;42.680;26.324;2024-02-16T00:37:49;99001.75;;;9.01;79.71
9740;BME280;4909;42.680;26.324;2024-02-16T00:40:16;98966.63;;;8.96;79.05
9740;BME280;4909;42.680;26.324;2024-02-16T00:42:43;98984.44;;;8.91;79.70
9740;BME280;4909;42.680;26.324;2024-02-16T00:45:11;98978.16;;;8.95;79.03
9740;BME280;4909;42.680;26.324;2024-02-16T00:47:38;98986.91;;;8.97;78.12
9740;BME280;4909;42.680;26.324;2024-02-16T00:50:06;98968.88;;;9.08;78.36
9740;BME280;4909;42.680;26.324;2024-02-16T00:52:35;98959.09;;;9.10;77.82
9740;BME280;4909;42.680;26.324;2024-02-16T00:55:03;98986.91;;;8.97;78.04
9740;BME280;4909;42.680;26.324;2024-02-16T00:57:30;98994.97;;;8.93;77.45
9740;BME280;4909;42.680;26.324;2024-02-16T00:59:58;98965.75;;;8.96;77.41
9740;BME280;4909;42.680;26.324;2024-02-16T01:02:27;98981.28;;;9.06;77.51
9740;BME280;4909;42.680;26.324;2024-02-16T01:04:54;98977.69;;;9.09;77.25
9740;BME280;4909;42.680;26.324;2024-02-16T01:07:27;98982.09;;;9.10;77.37
9740;BME280;4909;42.680;26.324;2024-02-16T01:09:54;98985.88;;;9.01;76.86
9740;BME280;4909;42.680;26.324;2024-02-16T01:12:22;98972.84;;;8.95;77.02
9740;BME280;4909;42.680;26.324;2024-02-16T01:14:49;98948.97;;;8.97;76.97
9740;BME280;4909;42.680;26.324;2024-02-16T01:17:16;98969.69;;;9.10;76.23
9740;BME280;4909;42.680;26.324;2024-02-16T01:19:44;98950.44;;;9.05;76.16
9740;BME280;4909;42.680;26.324;2024-02-16T01:22:12;98964.91;;;8.95;75.39
9740;BME280;4909;42.680;26.324;2024-02-16T01:24:40;98955.25;;;8.94;75.47
9740;BME280;4909;42.680;26.324;2024-02-16T01:27:06;98935.72;;;8.97;75.08
9740;BME280;4909;42.680;26.324;2024-02-16T01:29:34;98969.78;;;9.07;75.15
9740;BME280;4909;42.680;26.324;2024-02-16T01:32:01;98953.00;;;9.08;75.20
9740;BME280;4909;42.680;26.324;2024-02-16T01:34:28;98939.44;;;8.91;75.08
9740;BME280;4909;42.680;26.324;2024-02-16T01:36:58;98987.41;;;9.08;75.18
9740;BME280;4909;42.680;26.324;2024-02-16T01:39:25;98962.75;;;9.06;74.96
9740;BME280;4909;42.680;26.324;2024-02-16T01:41:52;98975.81;;;9.12;75.62
9740;BME280;4909;42.680;26.324;2024-02-16T01:44:19;98997.19;;;9.06;75.20
9740;BME280;4909;42.680;26.324;2024-02-16T01:46:46;98971.75;;;9.01;75.40
9740;BME280;4909;42.680;26.324;2024-02-16T01:49:14;98931.41;;;8.94;76.21
9740;BME280;4909;42.680;26.324;2024-02-16T01:51:42;98953.69;;;8.87;76.29
9740;BME280;4909;42.680;26.324;2024-02-16T01:54:12;98966.47;;;9.01;76.16
9740;BME280;4909;42.680;26.324;2024-02-16T01:56:40;98950.09;;;8.90;76.21
9740;BME280;4909;42.680;26.324;2024-02-16T01:59:08;98911.75;;;8.75;76.56
9740;BME280;4909;42.680;26.324;2024-02-16T02:01:35;98954.25;;;8.97;76.69
9740;BME280;4909;42.680;26.324;2024-02-16T02:04:03;98970.41;;;8.89;76.54
9740;BME280;4909;42.680;26.324;2024-02-16T02:06:31;98962.75;;;8.80;76.58
9740;BME280;4909;42.680;26.324;2024-02-16T02:08:58;98969.19;;;8.71;77.33
9740;BME280;4909;42.680;26.324;2024-02-16T02:11:26;98936.78;;;8.65;77.22
9740;BME280;4909;42.680;26.324;2024-02-16T02:13:54;98969.84;;;8.80;77.51
9740;BME280;4909;42.680;26.324;2024-02-16T02:16:21;98947.69;;;8.82;77.67
9740;BME280;4909;42.680;26.324;2024-02-16T02:18:48;98943.25;;;8.83;77.33
9740;BME280;4909;42.680;26.324;2024-02-16T02:21:15;98955.13;;;8.71;77.60
9740;BME280;4909;42.680;26.324;2024-02-16T02:23:44;98944.53;;;8.43;78.16
9740;BME280;4909;42.680;26.324;2024-02-16T02:26:14;98962.22;;;8.69;78.42
9740;BME280;4909;42.680;26.324;2024-02-16T02:28:42;98978.25;;;8.64;79.20
9740;BME280;4909;42.680;26.324;2024-02-16T02:31:09;98949.59;;;8.51;79.63
9740;BME280;4909;42.680;26.324;2024-02-16T02:33:36;98974.31;;;8.50;79.67
9740;BME280;4909;42.680;26.324;2024-02-16T02:36:04;98954.66;;;8.57;79.53
9740;BME280;4909;42.680;26.324;2024-02-16T02:38:31;98960.41;;;8.71;78.69
9740;BME280;4909;42.680;26.324;2024-02-16T02:41:00;98929.72;;;8.65;78.38
9740;BME280;4909;42.680;26.324;2024-02-16T02:43:27;98957.84;;;8.68;78.50
9740;BME280;4909;42.680;26.324;2024-02-16T02:45:54;98908.69;;;8.61;78.76
9740;BME280;4909;42.680;26.324;2024-02-16T02:48:21;98937.72;;;8.62;79.23
9740;BME280;4909;42.680;26.324;2024-02-16T02:50:48;98913.31;;;8.54;78.38
9740;BME280;4909;42.680;26.324;2024-02-16T02:53:15;98930.63;;;8.64;78.01
9740;BME280;4909;42.680;26.324;2024-02-16T02:55:43;98948.28;;;8.64;77.85
9740;BME280;4909;42.680;26.324;2024-02-16T02:58:12;98950.81;;;8.67;77.68
9740;BME280;4909;42.680;26.324;2024-02-16T03:00:39;98964.88;;;8.69;76.79
9740;BME280;4909;42.680;26.324;2024-02-16T03:03:06;98962.84;;;8.77;77.35
9740;BME280;4909;42.680;26.324;2024-02-16T03:05:33;98948.88;;;8.72;76.07
9740;BME280;4909;42.680;26.324;2024-02-16T03:08:00;98964.13;;;8.65;76.51
9740;BME280;4909;42.680;26.324;2024-02-16T03:10:28;98946.19;;;8.73;76.04
9740;BME280;4909;42.680;26.324;2024-02-16T03:13:00;98970.06;;;8.72;76.71
9740;BME280;4909;42.680;26.324;2024-02-16T03:15:28;98950.59;;;8.75;75.73
9740;BME280;4909;42.680;26.324;2024-02-16T03:17:55;98916.50;;;8.65;76.43
9740;BME280;4909;42.680;26.324;2024-02-16T03:20:22;98950.81;;;8.67;76.17
9740;BME280;4909;42.680;26.324;2024-02-16T03:22:51;98949.28;;;8.60;76.39
9740;BME280;4909;42.680;26.324;2024-02-16T03:25:18;98940.53;;;8.58;76.42
9740;BME280;4909;42.680;26.324;2024-02-16T03:27:45;98947.38;;;8.65;76.40
9740;BME280;4909;42.680;26.324;2024-02-16T03:30:12;98952.09;;;8.55;76.62
9740;BME280;4909;42.680;26.324;2024-02-16T03:32:41;98946.66;;;8.60;75.80
9740;BME280;4909;42.680;26.324;2024-02-16T03:35:08;98962.38;;;8.64;75.83
9740;BME280;4909;42.680;26.324;2024-02-16T03:37:35;98947.75;;;8.53;76.17
9740;BME280;4909;42.680;26.324;2024-02-16T03:40:05;98966.97;;;8.58;76.36
9740;BME280;4909;42.680;26.324;2024-02-16T03:42:33;98954.53;;;8.61;75.74
9740;BME280;4909;42.680;26.324;2024-02-16T03:45:01;98972.28;;;8.58;75.45
9740;BME280;4909;42.680;26.324;2024-02-16T03:47:28;98950.97;;;8.62;75.02
9740;BME280;4909;42.680;26.324;2024-02-16T03:49:56;98956.47;;;8.56;74.85
9740;BME280;4909;42.680;26.324;2024-02-16T03:52:23;98971.25;;;8.62;74.75
9740;BME280;4909;42.680;26.324;2024-02-16T03:54:50;98947.34;;;8.66;74.05
9740;BME280;4909;42.680;26.324;2024-02-16T03:57:17;98962.22;;;8.69;74.12
9740;BME280;4909;42.680;26.324;2024-02-16T03:59:44;98965.78;;;8.68;74.53
9740;BME280;4909;42.680;26.324;2024-02-16T04:02:12;98962.53;;;8.60;74.03
9740;BME280;4909;42.680;26.324;2024-02-16T04:04:40;98942.06;;;8.65;73.51
9740;BME280;4909;42.680;26.324;2024-02-16T04:07:08;98945.47;;;8.68;73.84
9740;BME280;4909;42.680;26.324;2024-02-16T04:09:35;98940.91;;;8.73;73.29
9740;BME280;4909;42.680;26.324;2024-02-16T04:12:02;98957.84;;;8.68;72.90
9740;BME280;4909;42.680;26.324;2024-02-16T04:14:29;98968.38;;;8.69;72.90
9740;BME280;4909;42.680;26.324;2024-02-16T04:16:57;98960.91;;;8.56;73.25
9740;BME280;4909;42.680;26.324;2024-02-16T04:19:25;98972.59;;;8.47;73.21
9740;BME280;4909;42.680;26.324;2024-02-16T04:21:52;98978.53;;;8.55;73.17
9740;BME280;4909;42.680;26.324;2024-02-16T04:24:21;98962.50;;;8.61;72.52
9740;BME280;4909;42.680;26.324;2024-02-16T04:26:48;98978.38;;;8.61;72.36
9740;BME280;4909;42.680;26.324;2024-02-16T04:29:15;98950.19;;;8.59;72.60
9740;BME280;4909;42.680;26.324;2024-02-16T04:31:42;98991.59;;;8.61;72.74
9740;BME280;4909;42.680;26.324;2024-02-16T04:34:11;98989.13;;;8.55;73.00
9740;BME280;4909;42.680;26.324;2024-02-16T04:36:38;98986.38;;;8.58;72.85
9740;BME280;4909;42.680;26.324;2024-02-16T04:39:05;98988.00;;;8.62;73.22
9740;BME280;4909;42.680;26.324;2024-02-16T04:41:33;98970.34;;;8.63;73.56
9740;BME280;4909;42.680;26.324;2024-02-16T04:44:00;98970.78;;;8.77;73.08
9740;BME280;4909;42.680;26.324;2024-02-16T04:46:27;98981.50;;;8.72;73.38
9740;BME280;4909;42.680;26.324;2024-02-16T04:48:54;98968.56;;;8.63;73.87
9740;BME280;4909;42.680;26.324;2024-02-16T04:51:22;98957.22;;;8.60;74.75
9740;BME280;4909;42.680;26.324;2024-02-16T04:53:49;98977.97;;;8.46;74.99
9740;BME280;4909;42.680;26.324;2024-02-16T04:56:16;98977.13;;;8.44;74.99
9740;BME280;4909;42.680;26.324;2024-02-16T04:58:44;98961.69;;;8.58;74.40
9740;BME280;4909;42.680;26.324;2024-02-16T05:01:12;98981.41;;;8.48;75.05
9740;BME280;4909;42.680;26.324;2024-02-16T05:03:39;98983.16;;;8.49;75.26
9740;BME280;4909;42.680;26.324;2024-02-16T05:06:07;98961.66;;;8.32;74.59
9740;BME280;4909;42.680;26.324;2024-02-16T05:08:34;98979.63;;;8.48;74.11
9740;BME280;4909;42.680;26.324;2024-02-16T05:11:01;98991.19;;;8.46;74.09
9740;BME280;4909;42.680;26.324;2024-02-16T05:13:28;98991.97;;;8.48;74.45
9740;BME280;4909;42.680;26.324;2024-02-16T05:15:56;98995.44;;;8.51;74.51
9740;BME280;4909;42.680;26.324;2024-02-16T05:18:23;98993.56;;;8.55;74.31
9740;BME280;4909;42.680;26.324;2024-02-16T05:20:50;98996.16;;;8.56;74.35
9740;BME280;4909;42.680;26.324;2024-02-16T05:23:17;98986.06;;;8.40;74.58
9740;BME280;4909;42.680;26.324;2024-02-16T05:25:44;98998.16;;;8.48;74.98
9740;BME280;4909;42.680;26.324;2024-02-16T05:28:11;99012.94;;;8.55;74.90
9740;BME280;4909;42.680;26.324;2024-02-16T05:30:39;99001.06;;;8.39;75.24
9740;BME280;4909;42.680;26.324;2024-02-16T05:33:07;99028.56;;;8.34;75.89
9740;BME280;4909;42.680;26.324;2024-02-16T05:35:34;99004.47;;;8.43;75.75
9740;BME280;4909;42.680;26.324;2024-02-16T05:38:06;99039.06;;;8.37;75.83
9740;BME280;4909;42.680;26.324;2024-02-16T05:40:46;99014.16;;;8.44;75.55
9740;BME280;4909;42.680;26.324;2024-02-16T05:43:19;99028.28;;;8.43;75.56
9740;BME280;4909;42.680;26.324;2024-02-16T05:45:46;99022.19;;;8.41;75.10
9740;BME280;4909;42.680;26.324;2024-02-16T05:48:14;99033.50;;;8.46;75.27
9740;BME280;4909;42.680;26.324;2024-02-16T05:50:41;99030.03;;;8.44;75.26
9740;BME280;4909;42.680;26.324;2024-02-16T05:53:08;98991.19;;;8.46;74.72
9740;BME280;4909;42.680;26.324;2024-02-16T05:55:36;99001.63;;;8.50;74.55
9740;BME280;4909;42.680;26.324;2024-02-16T05:58:03;99016.06;;;8.39;74.79
9740;BME280;4909;42.680;26.324;2024-02-16T06:00:33;99005.78;;;8.29;74.96
9740;BME280;4909;42.680;26.324;2024-02-16T06:03:00;99013.69;;;8.28;74.79
9740;BME280;4909;42.680;26.324;2024-02-16T06:05:29;99028.66;;;8.29;74.84
9740;BME280;4909;42.680;26.324;2024-02-16T06:07:56;99035.47;;;8.39;74.77
9740;BME280;4909;42.680;26.324;2024-02-16T06:10:24;99047.50;;;8.49;74.61
9740;BME280;4909;42.680;26.324;2024-02-16T06:12:51;99028.13;;;8.49;74.66
9740;BME280;4909;42.680;26.324;2024-02-16T06:15:18;99049.28;;;8.49;74.33
9740;BME280;4909;42.680;26.324;2024-02-16T06:17:45;99051.84;;;8.52;74.22
9740;BME280;4909;42.680;26.324;2024-02-16T06:20:15;99065.25;;;8.46;74.08
9740;BME280;4909;42.680;26.324;2024-02-16T06:22:43;99049.66;;;8.37;74.24
9740;BME280;4909;42.680;26.324;2024-02-16T06:25:10;99047.00;;;8.37;74.38
9740;BME280;4909;42.680;26.324;2024-02-16T06:27:37;99059.97;;;8.46;74.78
9740;BME280;4909;42.680;26.324;2024-02-16T06:30:05;99062.66;;;8.43;74.74
9740;BME280;4909;42.680;26.324;2024-02-16T06:32:33;99059.78;;;8.52;74.37
9740;BME280;4909;42.680;26.324;2024-02-16T06:35:00;99081.59;;;8.60;74.14
9740;BME280;4909;42.680;26.324;2024-02-16T06:37:26;99082.06;;;8.43;73.99
9740;BME280;4909;42.680;26.324;2024-02-16T06:39:55;99105.47;;;8.57;73.89
9740;BME280;4909;42.680;26.324;2024-02-16T06:42:22;99090.00;;;8.43;73.98
9740;BME280;4909;42.680;26.324;2024-02-16T06:44:49;99067.44;;;8.61;73.46
9740;BME280;4909;42.680;26.324;2024-02-16T06:47:16;99105.38;;;8.61;73.79
9740;BME280;4909;42.680;26.324;2024-02-16T06:49:44;99112.09;;;8.71;73.22
9740;BME280;4909;42.680;26.324;2024-02-16T06:52:11;99123.94;;;8.89;72.48
9740;BME280;4909;42.680;26.324;2024-02-16T06:54:38;99110.69;;;8.89;71.92
9740;BME280;4909;42.680;26.324;2024-02-16T06:57:07;99119.31;;;8.96;71.71
9740;BME280;4909;42.680;26.324;2024-02-16T06:59:34;99082.72;;;8.81;71.94
9740;BME280;4909;42.680;26.324;2024-02-16T07:02:01;99107.88;;;8.95;71.60
9740;BME280;4909;42.680;26.324;2024-02-16T07:04:28;99106.75;;;9.02;71.41
9740;BME280;4909;42.680;26.324;2024-02-16T07:06:55;99121.59;;;9.08;70.29
9740;BME280;4909;42.680;26.324;2024-02-16T07:09:22;99130.47;;;9.05;70.16
9740;BME280;4909;42.680;26.324;2024-02-16T07:11:49;99120.81;;;9.04;69.96
9740;BME280;4909;42.680;26.324;2024-02-16T07:14:18;99128.47;;;9.13;69.96
9740;BME280;4909;42.680;26.324;2024-02-16T07:16:45;99099.34;;;9.13;69.47
9740;BME280;4909;42.680;26.324;2024-02-16T07:19:12;99130.94;;;9.20;70.09
9740;BME280;4909;42.680;26.324;2024-02-16T07:21:39;99155.44;;;9.26;69.98
9740;BME280;4909;42.680;26.324;2024-02-16T07:24:06;99131.72;;;9.23;69.86
9740;BME280;4909;42.680;26.324;2024-02-16T07:26:34;99144.03;;;9.52;69.68
9740;BME280;4909;42.680;26.324;2024-02-16T07:29:01;99107.59;;;9.58;69.28
9740;BME280;4909;42.680;26.324;2024-02-16T07:31:32;99138.56;;;9.58;68.17
9740;BME280;4909;42.680;26.324;2024-02-16T07:34:00;99151.53;;;9.66;68.78
9740;BME280;4909;42.680;26.324;2024-02-16T07:36:27;99164.25;;;9.54;69.48
9740;BME280;4909;42.680;26.324;2024-02-16T07:38:54;99171.84;;;9.39;70.26
9740;BME280;4909;42.680;26.324;2024-02-16T07:41:21;99165.38;;;9.20;70.91
9740;BME280;4909;42.680;26.324;2024-02-16T07:43:48;99150.00;;;9.31;71.41
9740;BME280;4909;42.680;26.324;2024-02-16T07:46:15;99162.97;;;9.10;71.68
9740;BME280;4909;42.680;26.324;2024-02-16T07:48:45;99163.97;;;9.08;72.34
9740;BME280;4909;42.680;26.324;2024-02-16T07:51:12;99177.06;;;9.12;72.02
9740;BME280;4909;42.680;26.324;2024-02-16T07:53:39;99169.06;;;9.43;71.10
9740;BME280;4909;42.680;26.324;2024-02-16T07:56:07;99154.25;;;9.36;70.71
9740;BME280;4909;42.680;26.324;2024-02-16T07:58:46;99174.44;;;9.40;70.71
9740;BME280;4909;42.680;26.324;2024-02-16T08:01:13;99172.31;;;9.51;70.45
9740;BME280;4909;42.680;26.324;2024-02-16T08:03:41;99156.13;;;9.33;69.78
9740;BME280;4909;42.680;26.324;2024-02-16T08:06:10;99173.41;;;9.44;69.63
9740;BME280;4909;42.680;26.324;2024-02-16T08:08:37;99161.44;;;9.33;69.33
9740;BME280;4909;42.680;26.324;2024-02-16T08:11:04;99202.16;;;9.58;69.41
9740;BME280;4909;42.680;26.324;2024-02-16T08:13:31;99184.94;;;9.71;69.38
9740;BME280;4909;42.680;26.324;2024-02-16T08:15:58;99171.81;;;9.67;69.70
9740;BME280;4909;42.680;26.324;2024-02-16T08:18:25;99192.63;;;9.51;69.91
9740;BME280;4909;42.680;26.324;2024-02-16T08:20:52;99184.09;;;9.69;70.04
9740;BME280;4909;42.680;26.324;2024-02-16T08:23:20;99183.72;;;9.81;69.47
9740;BME280;4909;42.680;26.324;2024-02-16T08:25:47;99190.78;;;10.07;68.59
9740;BME280;4909;42.680;26.324;2024-02-16T08:28:14;99177.66;;;10.04;68.55
9740;BME280;4909;42.680;26.324;2024-02-16T08:30:41;99187.53;;;9.99;68.04
9740;BME280;4909;42.680;26.324;2024-02-16T08:33:09;99186.13;;;9.61;69.02
9740;BME280;4909;42.680;26.324;2024-02-16T08:35:36;99198.44;;;9.90;68.81
9740;BME280;4909;42.680;26.324;2024-02-16T08:38:04;99185.75;;;9.99;67.98
9740;BME280;4909;42.680;26.324;2024-02-16T08:40:37;99173.84;;;9.86;67.70
9740;BME280;4909;42.680;26.324;2024-02-16T08:43:05;99189.56;;;9.65;68.51
9740;BME280;4909;42.680;26.324;2024-02-16T08:45:32;99206.66;;;9.54;69.08
9740;BME280;4909;42.680;26.324;2024-02-16T08:47:59;99199.97;;;9.43;69.31
9740;BME280;4909;42.680;26.324;2024-02-16T08:50:29;99196.34;;;9.45;69.58
9740;BME280;4909;42.680;26.324;2024-02-16T08:52:56;99188.53;;;9.69;68.83
9740;BME280;4909;42.680;26.324;2024-02-16T08:55:23;99202.34;;;9.52;69.13
9740;BME280;4909;42.680;26.324;2024-02-16T08:57:51;99208.28;;;9.31;70.29
9740;BME280;4909;42.680;26.324;2024-02-16T09:00:19;99205.50;;;9.35;70.96
9740;BME280;4909;42.680;26.324;2024-02-16T09:02:46;99184.28;;;9.35;70.33
9740;BME280;4909;42.680;26.324;2024-02-16T09:05:13;99201.50;;;9.50;70.91
9740;BME280;4909;42.680;26.324;2024-02-16T09:07:40;99211.59;;;9.67;69.99
9740;BME280;4909;42.680;26.324;2024-02-16T09:10:07;99249.88;;;9.84;69.18
9740;BME280;4909;42.680;26.324;2024-02-16T09:12:34;99219.63;;;9.91;69.84
9740;BME280;4909;42.680;26.324;2024-02-16T09:15:03;99235.91;;;9.79;69.56
9740;BME280;4909;42.680;26.324;2024-02-16T09:17:31;99203.94;;;9.84;69.64
9740;BME280;4909;42.680;26.324;2024-02-16T09:19:58;99212.47;;;9.93;70.25
9740;BME280;4909;42.680;26.324;2024-02-16T09:22:25;99230.88;;;9.72;70.98
9740;BME280;4909;42.680;26.324;2024-02-16T09:24:52;99235.00;;;9.52;71.84
9740;BME280;4909;42.680;26.324;2024-02-16T09:27:20;99224.88;;;9.65;71.24
9740;BME280;4909;42.680;26.324;2024-02-16T09:29:49;99206.34;;;9.64;72.22
9740;BME280;4909;42.680;26.324;2024-02-16T09:32:18;99225.63;;;9.69;72.67
9740;BME280;4909;42.680;26.324;2024-02-16T09:34:44;99204.34;;;9.98;72.33
9740;BME280;4909;42.680;26.324;2024-02-16T09:37:11;99228.97;;;9.75;72.18
9740;BME280;4909;42.680;26.324;2024-02-16T09:39:38;99233.41;;;9.75;73.09
9740;BME280;4909;42.680;26.324;2024-02-16T09:42:06;99224.72;;;9.70;73.50
9740;BME280;4909;42.680;26.324;2024-02-16T09:44:35;99222.84;;;9.73;73.45
9740;BME280;4909;42.680;26.324;2024-02-16T09:47:03;99236.88;;;9.77;74.42
9740;BME280;4909;42.680;26.324;2024-02-16T09:49:34;99235.25;;;9.73;75.75
9740;BME280;4909;42.680;26.324;2024-02-16T09:52:02;99230.59;;;9.79;75.55
9740;BME280;4909;42.680;26.324;2024-02-16T09:54:31;99229.72;;;9.79;76.56
9740;BME280;4909;42.680;26.324;2024-02-16T09:56:59;99243.56;;;9.88;76.00
9740;BME280;4909;42.680;26.324;2024-02-16T09:59:26;99228.78;;;9.81;76.10
9740;BME280;4909;42.680;26.324;2024-02-16T10:01:59;99232.66;;;9.97;75.92
9740;BME280;4909;42.680;26.324;2024-02-16T10:04:26;99230.53;;;10.09;75.07
9740;BME280;4909;42.680;26.324;2024-02-16T10:06:55;99234.78;;;10.14;75.05
9740;BME280;4909;42.680;26.324;2024-02-16T10:09:23;99221.69;;;10.08;75.58
9740;BME280;4909;42.680;26.324;2024-02-16T10:11:50;99210.66;;;10.22;75.74
9740;BME280;4909;42.680;26.324;2024-02-16T10:14:17;99221.78;;;10.33;75.44
9740;BME280;4909;42.680;26.324;2024-02-16T10:16:45;99228.94;;;10.31;75.69
9740;BME280;4909;42.680;26.324;2024-02-16T10:19:13;99225.50;;;10.27;75.49
9740;BME280;4909;42.680;26.324;2024-02-16T10:21:40;99200.28;;;10.16;76.33
9740;BME280;4909;42.680;26.324;2024-02-16T10:24:11;99220.75;;;10.37;75.58
9740;BME280;4909;42.680;26.324;2024-02-16T10:26:40;99234.44;;;10.25;76.09
9740;BME280;4909;42.680;26.324;2024-02-16T10:29:09;99223.00;;;10.23;75.78
9740;BME280;4909;42.680;26.324;2024-02-16T10:31:36;99193.75;;;9.98;76.38
9740;BME280;4909;42.680;26.324;2024-02-16T10:34:04;99201.66;;;9.99;76.90
9740;BME280;4909;42.680;26.324;2024-02-16T10:36:33;99226.50;;;10.25;76.35
9740;BME280;4909;42.680;26.324;2024-02-16T10:39:01;99223.00;;;10.23;76.67
9740;BME280;4909;42.680;26.324;2024-02-16T10:41:33;99222.09;;;10.24;76.23
9740;BME280;4909;42.680;26.324;2024-02-16T10:44:01;99221.28;;;10.22;77.31
9740;BME280;4909;42.680;26.324;2024-02-16T10:46:29;99217.06;;;10.15;77.31
9740;BME280;4909;42.680;26.324;2024-02-16T10:48:56;99210.88;;;10.16;77.04
9740;BME280;4909;42.680;26.324;2024-02-16T10:51:28;99210.47;;;10.28;76.97
9740;BME280;4909;42.680;26.324;2024-02-16T10:53:56;99198.03;;;10.55;75.87
9740;BME280;4909;42.680;26.324;2024-02-16T10:56:34;99219.47;;;10.73;75.15
9740;BME280;4909;42.680;26.324;2024-02-16T10:59:04;99213.56;;;10.65;75.13
9740;BME280;4909;42.680;26.324;2024-02-16T11:01:33;99190.25;;;10.50;75.44
9740;BME280;4909;42.680;26.324;2024-02-16T11:04:04;99202.50;;;10.28;76.33
9740;BME280;4909;42.680;26.324;2024-02-16T11:06:45;99207.25;;;10.44;77.07
9740;BME280;4909;42.680;26.324;2024-02-16T11:09:23;99217.69;;;10.49;76.98
9740;BME280;4909;42.680;26.324;2024-02-16T11:11:53;99208.28;;;10.40;77.25
9740;BME280;4909;42.680;26.324;2024-02-16T11:14:22;99206.31;;;10.45;77.13
9740;BME280;4909;42.680;26.324;2024-02-16T11:16:53;99213.63;;;10.64;77.05
9740;BME280;4909;42.680;26.324;2024-02-16T11:19:22;99192.59;;;10.58;76.67
9740;BME280;4909;42.680;26.324;2024-02-16T11:21:56;99204.22;;;10.55;76.98
9740;BME280;4909;42.680;26.324;2024-02-16T11:24:30;99175.31;;;10.46;76.94
9740;BME280;4909;42.680;26.324;2024-02-16T11:27:01;99201.59;;;10.54;77.17
9740;BME280;4909;42.680;26.324;2024-02-16T11:29:31;99197.19;;;10.77;76.31
9740;BME280;4909;42.680;26.324;2024-02-16T11:32:00;99193.56;;;10.80;76.19
9740;BME280;4909;42.680;26.324;2024-02-16T11:34:28;99200.97;;;10.70;76.84
9740;BME280;4909;42.680;26.324;2024-02-16T11:36:55;99188.66;;;10.69;76.71
9740;BME280;4909;42.680;26.324;2024-02-16T11:39:22;99152.59;;;10.39;77.07
9740;BME280;4909;42.680;26.324;2024-02-16T11:42:00;99208.41;;;10.61;77.24
9740;BME280;4909;42.680;26.324;2024-02-16T11:44:29;99195.91;;;10.64;77.74
9740;BME280;4909;42.680;26.324;2024-02-16T11:46:57;99193.72;;;10.75;77.02
9740;BME280;4909;42.680;26.324;2024-02-16T11:49:24;99177.09;;;10.70;77.52
9740;BME280;4909;42.680;26.324;2024-02-16T11:51:51;99184.50;;;10.85;76.65
9740;BME280;4909;42.680;26.324;2024-02-16T11:54:18;99189.72;;;10.88;76.41
9740;BME280;4909;42.680;26.324;2024-02-16T11:56:46;99190.19;;;10.75;76.48
9740;BME280;4909;42.680;26.324;2024-02-16T11:59:18;99179.66;;;10.49;77.11
9740;BME280;4909;42.680;26.324;2024-02-16T12:01:50;99195.63;;;10.72;77.46
9740;BME280;4909;42.680;26.324;2024-02-16T12:04:25;99148.00;;;10.44;77.15
9740;BME280;4909;42.680;26.324;2024-02-16T12:06:53;99186.03;;;10.68;77.20
9740;BME280;4909;42.680;26.324;2024-02-16T12:09:22;99196.66;;;10.93;76.81
9740;BME280;4909;42.680;26.324;2024-02-16T12:11:50;99185.94;;;10.94;76.51
9740;BME280;4909;42.680;26.324;2024-02-16T12:14:19;99195.59;;;10.73;77.12
9740;BME280;4909;42.680;26.324;2024-02-16T12:16:47;99189.66;;;10.65;78.34
9740;BME280;4909;42.680;26.324;2024-02-16T12:19:15;99193.63;;;10.78;77.81
9740;BME280;4909;42.680;26.324;2024-02-16T12:21:42;99193.88;;;10.71;77.82
9740;BME280;4909;42.680;26.324;2024-02-16T12:24:09;99175.75;;;10.59;78.19
9740;BME280;4909;42.680;26.324;2024-02-16T12:26:37;99191.53;;;10.63;78.09
9740;BME280;4909;42.680;26.324;2024-02-16T12:29:05;99173.44;;;10.74;78.03
9740;BME280;4909;42.680;26.324;2024-02-16T12:31:34;99177.31;;;10.89;78.15
9740;BME280;4909;42.680;26.324;2024-02-16T12:34:03;99186.41;;;11.05;77.17
9740;BME280;4909;42.680;26.324;2024-02-16T12:36:32;99180.50;;;10.99;77.11
9740;BME280;4909;42.680;26.324;2024-02-16T12:38:59;99166.91;;;10.83;77.16
9740;BME280;4909;42.680;26.324;2024-02-16T12:41:28;99183.09;;;10.75;78.48
9740;BME280;4909;42.680;26.324;2024-02-16T12:43:55;99184.94;;;10.98;77.13
9740;BME280;4909;42.680;26.324;2024-02-16T12:46:22;99179.53;;;11.00;77.00
9740;BME280;4909;42.680;26.324;2024-02-16T12:48:51;99192.66;;;11.04;75.74
9740;BME280;4909;42.680;26.324;2024-02-16T12:51:19;99189.38;;;11.21;76.17
9740;BME280;4909;42.680;26.324;2024-02-16T12:53:46;99176.22;;;11.40;75.10
9740;BME280;4909;42.680;26.324;2024-02-16T12:56:13;99179.25;;;11.52;73.99
9740;BME280;4909;42.680;26.324;2024-02-16T12:58:40;99156.75;;;11.39;73.87
9740;BME280;4909;42.680;26.324;2024-02-16T13:01:07;99180.75;;;11.59;73.03
9740;BME280;4909;42.680;26.324;2024-02-16T13:03:34;99179.34;;;11.51;73.08
9740;BME280;4909;42.680;26.324;2024-02-16T13:06:03;99191.63;;;11.53;72.85
9740;BME280;4909;42.680;26.324;2024-02-16T13:08:31;99186.81;;;11.41;73.13
9740;BME280;4909;42.680;26.324;2024-02-16T13:10:58;99184.84;;;11.46;73.67
9740;BME280;4909;42.680;26.324;2024-02-16T13:13:25;99191.25;;;11.41;73.76
9740;BME280;4909;42.680;26.324;2024-02-16T13:15:52;99166.38;;;11.20;74.18
9740;BME280;4909;42.680;26.324;2024-02-16T13:18:19;99172.59;;;11.19;74.22
9740;BME280;4909;42.680;26.324;2024-02-16T13:20:46;99189.38;;;11.21;73.95
9740;BME280;4909;42.680;26.324;2024-02-16T13:23:15;99153.78;;;11.25;74.35